Time;durP1;ratioP1;P1;durP2;ratioP2;P2;SDS_P1;SDS_P2;PMS_P1;PMS_P2;Temp;Humidity;BMP_temperature;BMP_pressure;BME280_temperature;BME280_humidity;BME280_pressure;Samples;Min_cycle;Max_cycle;Signal;HPM_P1;HPM_P2
2021/08/04 00:01:05;;;;;;;4.70;2.60;;;;;;;17.32;92.85;100001.66;2925405;79;21031;-61
2021/08/04 00:05:10;;;;;;;2.70;2.12;;;;;;;17.44;92.37;100000.75;2917862;81;21492;-62
2021/08/04 00:09:18;;;;;;;5.78;2.40;;;;;;;17.46;92.15;99997.38;2917908;81;21015;-62
2021/08/04 00:13:20;;;;;;;3.95;2.00;;;;;;;17.42;91.70;100002.78;2917574;81;21472;-61
2021/08/04 00:17:27;;;;;;;4.10;1.92;;;;;;;17.41;91.73;99978.26;2917596;81;20987;-62
2021/08/04 00:21:33;;;;;;;3.75;2.42;;;;;;;17.41;92.32;99974.23;2946516;79;21006;-62
2021/08/04 00:25:41;;;;;;;4.03;2.02;;;;;;;17.36;93.12;99957.28;2966409;80;21453;-62
2021/08/04 00:29:46;;;;;;;1.90;1.60;;;;;;;17.39;92.76;99946.20;2966349;80;20962;-62
2021/08/04 00:33:51;;;;;;;3.05;2.35;;;;;;;17.42;92.79;99944.98;2959860;80;21042;-62
2021/08/04 00:37:56;;;;;;;5.65;2.45;;;;;;;17.24;92.30;99952.00;2956430;80;21073;-62
2021/08/04 00:42:00;;;;;;;4.97;2.33;;;;;;;17.05;93.24;99954.62;2956301;80;21001;-61
2021/08/04 00:46:02;;;;;;;4.30;2.85;;;;;;;16.87;94.23;99955.68;2956192;80;20963;-62
2021/08/04 00:50:12;;;;;;;6.00;3.05;;;;;;;16.82;94.75;99943.29;2956299;80;21540;-62
2021/08/04 00:54:19;;;;;;;6.95;2.75;;;;;;;16.77;94.92;99952.39;2965601;79;20956;-61
2021/08/04 00:58:36;;;;;;;6.62;3.15;;;;;;;16.72;95.29;99945.37;2965393;80;21005;-62
2021/08/04 01:02:46;;;;;;;2.60;1.92;;;;;;;16.83;96.09;99935.06;2965125;79;20999;-62
2021/08/04 01:07:16;;;;;;;3.67;1.92;;;;;;;16.84;95.05;99935.89;2965600;80;20971;-62
2021/08/04 01:11:20;;;;;;;3.90;2.42;;;;;;;16.83;95.02;99932.87;2965113;79;21073;-61
2021/08/04 01:15:27;;;;;;;3.33;1.77;;;;;;;16.80;94.93;99929.20;2965337;80;21035;-61
2021/08/04 01:20:02;;;;;;;3.62;2.17;;;;;;;16.77;94.77;99926.88;2965239;80;20980;-61
2021/08/04 01:24:28;;;;;;;6.90;2.70;;;;;;;16.70;95.32;99922.70;2965062;80;21070;-62
2021/08/04 01:28:48;;;;;;;2.75;2.25;;;;;;;16.65;95.47;99921.88;2963803;79;20991;-61
2021/08/04 01:32:59;;;;;;;3.08;2.10;;;;;;;16.59;95.91;99925.27;2964482;79;21023;-61
2021/08/04 01:37:06;;;;;;;4.10;2.47;;;;;;;16.55;95.64;99930.14;2965140;79;20983;-62
2021/08/04 01:41:12;;;;;;;7.70;2.65;;;;;;;16.56;95.87;99926.44;2965116;78;21027;-61
2021/08/04 01:45:17;;;;;;;5.60;2.27;;;;;;;16.69;95.70;99920.50;2965584;80;20975;-61
2021/08/04 01:49:26;;;;;;;5.17;2.92;;;;;;;16.83;95.19;99916.76;2973850;80;21516;-62
2021/08/04 01:53:33;;;;;;;4.58;3.00;;;;;;;16.96;94.89;99919.72;3033174;78;21026;-61
2021/08/04 01:57:34;;;;;;;8.45;2.65;;;;;;;17.11;94.85;99927.88;2978776;80;21480;-61
2021/08/04 02:01:41;;;;;;;6.00;2.58;;;;;;;17.16;92.58;99922.47;3032822;78;20998;-61
2021/08/04 02:05:49;;;;;;;6.37;2.70;;;;;;;16.98;91.64;99931.16;3033124;78;20998;-61
2021/08/04 02:10:06;;;;;;;7.72;2.37;;;;;;;16.96;92.32;99929.12;2978605;79;21055;-62
2021/08/04 02:14:42;;;;;;;3.50;2.67;;;;;;;17.02;92.43;99927.61;2978683;79;21011;-61
2021/08/04 02:18:53;;;;;;;4.37;1.98;;;;;;;17.05;91.89;99921.03;2974150;80;21000;-61
2021/08/04 02:23:01;;;;;;;6.90;2.72;;;;;;;17.05;91.45;99922.38;3023352;78;21465;-62
2021/08/04 02:27:08;;;;;;;4.95;2.17;;;;;;;17.11;91.34;99923.84;2978189;80;21062;-61
2021/08/04 02:31:15;;;;;;;7.12;2.37;;;;;;;17.17;91.29;99926.34;3032960;78;20999;-61
2021/08/04 02:35:19;;;;;;;6.20;2.67;;;;;;;17.19;90.43;99932.37;2976051;79;20996;-61
2021/08/04 02:39:24;;;;;;;2.22;2.00;;;;;;;17.17;90.67;99929.52;2974191;78;20940;-61
2021/08/04 02:43:32;;;;;;;8.50;3.05;;;;;;;17.13;90.57;99925.03;2975635;79;21040;-61
2021/08/04 02:47:35;;;;;;;;;;;;;;;17.10;90.73;99929.42;2978412;79;21036;-62
2021/08/04 02:51:42;;;;;;;4.47;2.65;;;;;;;17.10;91.01;99937.48;2975677;79;20086;-61
2021/08/04 02:55:47;;;;;;;3.37;2.42;;;;;;;17.12;91.29;99936.80;2975747;80;21044;-60
2021/08/04 02:59:49;;;;;;;5.15;2.37;;;;;;;17.13;91.17;99937.94;2949359;80;21061;-60
2021/08/04 03:03:51;;;;;;;2.47;2.05;;;;;;;17.17;91.08;99935.75;2969522;80;20986;-60
2021/08/04 03:07:55;;;;;;;6.10;3.42;;;;;;;17.19;90.31;99939.09;2969596;79;20966;-62
2021/08/04 03:11:57;;;;;;;6.47;3.02;;;;;;;17.12;91.18;99944.33;2969617;80;21555;-61
2021/08/04 03:15:58;;;;;;;3.58;2.40;;;;;;;17.19;91.09;99951.18;2969855;80;20947;-61
2021/08/04 03:20:01;;;;;;;6.62;2.40;;;;;;;17.22;90.68;99948.13;2969435;79;21063;-62
2021/08/04 03:24:11;;;;;;;5.75;2.27;;;;;;;17.31;90.51;99952.95;2969620;80;21010;-61
2021/08/04 03:28:15;;;;;;;4.65;3.00;;;;;;;17.35;89.86;99952.09;2969312;80;21002;-61
2021/08/04 03:32:19;;;;;;;8.10;2.77;;;;;;;17.35;89.60;99954.78;2969819;79;21456;-60
2021/08/04 03:36:28;;;;;;;6.35;2.77;;;;;;;17.34;89.58;99962.52;2972929;80;21030;-60
2021/08/04 03:40:30;;;;;;;6.83;2.87;;;;;;;17.17;89.61;99966.65;2973045;80;21503;-61
2021/08/04 03:44:34;;;;;;;5.62;3.05;;;;;;;17.15;90.18;99968.69;2973405;80;20970;-61
2021/08/04 03:48:40;;;;;;;5.67;3.50;;;;;;;17.14;90.48;99980.45;2973114;80;21022;-61
2021/08/04 03:52:44;;;;;;;;;;;;;;;17.05;90.42;99979.66;2975760;78;21033;-61
2021/08/04 03:56:50;;;;;;;8.40;3.67;;;;;;;17.09;91.70;99982.31;2973302;80;20432;-62
2021/08/04 04:00:57;;;;;;;11.33;4.75;;;;;;;17.10;91.29;99986.67;2973311;80;21037;-61
2021/08/04 04:05:09;;;;;;;9.55;5.42;;;;;;;17.16;92.42;99989.17;2973229;79;20994;-61
2021/08/04 04:09:11;;;;;;;15.43;6.72;;;;;;;17.28;92.26;99996.31;2972686;80;21101;-62
2021/08/04 04:13:15;;;;;;;11.33;7.10;;;;;;;17.32;91.76;99996.29;2973269;80;21022;-63
2021/08/04 04:17:21;;;;;;;6.70;5.33;;;;;;;17.32;91.94;99995.47;2972741;78;21042;-62
2021/08/04 04:21:27;;;;;;;13.00;7.50;;;;;;;17.25;91.33;99996.16;2973436;80;21037;-62
2021/08/04 04:25:34;;;;;;;15.65;6.12;;;;;;;17.14;91.82;100004.63;2973326;80;20958;-63
2021/08/04 04:29:38;;;;;;;9.18;6.53;;;;;;;17.11;92.95;100004.98;2973484;80;21076;-62
2021/08/04 04:33:44;;;;;;;8.98;5.85;;;;;;;17.30;93.68;100006.91;2967122;79;21540;-62
2021/08/04 04:37:47;;;;;;;9.73;6.05;;;;;;;17.27;92.53;100001.37;2955784;80;21002;-63
2021/08/04 04:41:51;;;;;;;7.90;4.95;;;;;;;17.24;92.75;100013.30;2955709;80;21053;-62
2021/08/04 04:46:00;;;;;;;10.45;5.35;;;;;;;17.35;93.89;100008.55;2955631;80;21050;-60
2021/08/04 04:50:11;;;;;;;7.25;5.50;;;;;;;17.47;92.96;100008.98;2954927;79;21045;-58
2021/08/04 04:54:13;;;;;;;8.45;5.50;;;;;;;17.56;92.28;100012.78;2954966;80;21547;-61
2021/08/04 04:58:19;;;;;;;17.70;5.40;;;;;;;17.62;92.13;100026.52;2955353;80;21073;-62
2021/08/04 05:02:23;;;;;;;19.65;6.05;;;;;;;17.74;92.71;100022.41;2955491;80;20990;-62
2021/08/04 05:06:30;;;;;;;11.10;4.78;;;;;;;17.82;91.98;100028.23;2955943;80;21555;-62
2021/08/04 05:10:35;;;;;;;11.90;5.28;;;;;;;17.91;91.87;100024.98;2955611;80;21528;-62
2021/08/04 05:14:45;;;;;;;10.93;4.45;;;;;;;17.92;91.64;100026.66;2930218;80;21560;-63
2021/08/04 05:18:50;;;;;;;9.55;5.28;;;;;;;17.92;91.72;100031.51;2955659;80;21053;-62
2021/08/04 05:22:54;;;;;;;8.40;5.62;;;;;;;17.93;91.96;100034.52;2955785;80;21508;-64
2021/08/04 05:26:58;;;;;;;9.90;4.33;;;;;;;17.94;91.70;100028.66;2955927;80;21015;-63
2021/08/04 05:31:07;;;;;;;6.87;4.97;;;;;;;17.95;91.70;100030.32;2955332;80;21619;-63
2021/08/04 05:35:14;;;;;;;9.38;6.03;;;;;;;17.88;91.29;100033.38;2955539;79;20995;-62
2021/08/04 05:39:20;;;;;;;6.72;5.28;;;;;;;17.83;91.74;100030.73;2956203;80;21030;-62
2021/08/04 05:43:22;;;;;;;11.18;6.53;;;;;;;17.85;92.36;100030.05;2955844;80;21022;-63
2021/08/04 05:47:27;;;;;;;8.30;5.92;;;;;;;17.90;92.44;100026.00;2955202;80;21011;-62
2021/08/04 05:51:31;;;;;;;7.15;5.10;;;;;;;17.99;92.78;100032.97;2955979;80;21007;-62
2021/08/04 05:55:37;;;;;;;11.30;6.15;;;;;;;18.07;93.12;100023.50;2956352;80;21010;-60
2021/08/04 05:59:44;;;;;;;8.98;5.92;;;;;;;18.20;92.49;100027.44;2938443;80;20978;-62
2021/08/04 06:03:51;;;;;;;7.72;5.80;;;;;;;18.27;91.93;100026.53;2904676;82;21560;-60
2021/08/04 06:07:56;;;;;;;9.98;6.12;;;;;;;18.37;91.96;100030.80;2904828;82;21015;-63
2021/08/04 06:12:01;;;;;;;8.98;6.08;;;;;;;18.46;91.66;100026.17;2905092;82;21043;-63
2021/08/04 06:16:06;;;;;;;8.43;5.37;;;;;;;18.55;90.95;100027.78;2905386;82;21078;-62
2021/08/04 06:20:15;;;;;;;7.58;6.12;;;;;;;18.61;90.88;100031.07;2905277;82;21003;-63
2021/08/04 06:24:22;;;;;;;14.40;5.47;;;;;;;18.68;91.61;100028.48;2905439;82;21544;-63
2021/08/04 06:28:25;;;;;;;7.42;5.92;;;;;;;18.87;90.99;100033.83;2907410;80;21531;-63
2021/08/04 06:32:30;;;;;;;9.78;4.33;;;;;;;18.95;90.30;100035.07;2936637;80;21563;-63
2021/08/04 06:36:36;;;;;;;6.15;4.03;;;;;;;19.02;90.11;100033.84;2971049;78;21029;-61
2021/08/04 06:40:40;;;;;;;15.72;6.70;;;;;;;19.20;90.33;100033.44;2971115;80;21026;-64
2021/08/04 06:44:42;;;;;;;9.43;5.65;;;;;;;19.16;89.31;100028.09;2973811;78;20987;-62
2021/08/04 06:48:47;;;;;;;7.33;4.47;;;;;;;19.17;90.25;100035.69;2944698;80;21488;-63
2021/08/04 06:52:49;;;;;;;7.37;4.47;;;;;;;19.36;90.68;100032.89;2922014;80;21006;-62
2021/08/04 06:56:52;;;;;;;5.37;3.98;;;;;;;19.49;90.02;100035.75;2922553;81;20978;-63
2021/08/04 07:00:56;;;;;;;9.50;4.42;;;;;;;19.58;89.32;100041.02;2922095;80;21542;-63
2021/08/04 07:05:01;;;;;;;9.28;5.83;;;;;;;19.66;90.04;100040.37;2943787;80;21526;-64
2021/08/04 07:14:39;;;;;;;7.97;5.30;;;;;;;19.79;90.37;100046.42;2951574;80;21022;-62
2021/08/04 07:19:20;;;;;;;7.95;5.62;;;;;;;19.94;90.18;100054.47;2951194;80;21014;-61
2021/08/04 07:23:25;;;;;;;5.17;3.62;;;;;;;20.00;90.36;100050.17;2932274;80;21002;-62
2021/08/04 07:28:00;;;;;;;4.90;3.75;;;;;;;20.13;89.23;100050.80;2953149;80;21589;-63
2021/08/04 07:32:09;;;;;;;7.97;3.98;;;;;;;20.28;89.34;100052.08;2955994;80;21006;-62
2021/08/04 07:36:46;;;;;;;4.58;2.80;;;;;;;20.57;88.87;100052.09;2922676;80;21034;-63
2021/08/04 07:40:50;;;;;;;6.90;3.60;;;;;;;21.04;88.48;100053.20;2927652;79;21013;-64
2021/08/04 07:44:55;;;;;;;2.47;2.05;;;;;;;21.68;86.46;100051.69;2950295;79;21017;-62
2021/08/04 07:49:27;;;;;;;4.40;3.62;;;;;;;22.08;85.93;100049.03;2906151;82;21015;-62
2021/08/04 07:54:01;;;;;;;3.95;3.10;;;;;;;22.49;81.92;100048.51;2917607;79;21077;-62
2021/08/04 07:58:40;;;;;;;5.55;2.87;;;;;;;22.69;79.78;100047.64;2941647;80;21011;-62
2021/08/04 08:03:21;;;;;;;2.83;2.25;;;;;;;22.75;78.84;100045.96;2951068;80;21022;-63
2021/08/04 08:08:04;;;;;;;4.90;2.70;;;;;;;22.71;78.75;100048.80;2918247;80;21054;-62
2021/08/04 08:12:07;;;;;;;2.55;1.92;;;;;;;22.63;78.79;100054.77;2919075;79;21018;-63
2021/08/04 08:16:09;;;;;;;2.85;2.05;;;;;;;22.60;79.28;100051.13;2957133;80;21059;-62
2021/08/04 08:20:14;;;;;;;2.92;2.60;;;;;;;23.12;79.31;100044.91;2914100;79;20991;-62
2021/08/04 08:24:18;;;;;;;6.05;2.50;;;;;;;23.77;78.88;100042.60;2926774;80;20963;-64
2021/08/04 08:28:20;;;;;;;3.62;1.95;;;;;;;24.05;73.28;100048.19;2939692;80;20987;-62
2021/08/04 08:32:26;;;;;;;3.20;1.95;;;;;;;24.35;73.47;100046.69;2931683;79;21046;-62
2021/08/04 08:36:28;;;;;;;3.30;2.40;;;;;;;24.53;71.89;100041.28;2955384;80;21039;-63
2021/08/04 08:40:30;;;;;;;2.50;2.08;;;;;;;24.50;72.26;100043.61;2936690;80;21054;-63
2021/08/04 08:44:33;;;;;;;4.37;1.70;;;;;;;24.59;69.62;100042.28;2904731;80;20951;-63
2021/08/04 08:48:36;;;;;;;2.33;1.75;;;;;;;24.76;69.48;100037.62;2904447;82;20986;-62
2021/08/04 08:52:39;;;;;;;1.87;1.57;;;;;;;24.75;69.01;100034.56;2905727;81;20986;-62
2021/08/04 08:56:43;;;;;;;2.22;0.88;;;;;;;24.86;68.09;100036.58;2926375;80;21019;-63
2021/08/04 09:00:45;;;;;;;3.47;1.80;;;;;;;25.06;70.93;100038.23;2906171;80;21041;-63
2021/08/04 09:05:09;;;;;;;1.98;1.52;;;;;;;25.18;68.47;100025.52;2928525;80;21014;-63
2021/08/04 09:09:31;;;;;;;1.72;1.25;;;;;;;25.36;64.69;100018.39;2904245;82;21035;-63
2021/08/04 09:13:36;;;;;;;1.55;1.40;;;;;;;25.38;65.00;100018.98;2915230;80;21007;-64
2021/08/04 09:17:43;;;;;;;2.62;1.32;;;;;;;25.40;64.27;100011.41;2909877;80;21018;-65
2021/08/04 09:22:07;;;;;;;1.67;1.27;;;;;;;25.48;64.90;100017.91;2923114;80;21027;-63
2021/08/04 09:26:15;;;;;;;2.12;1.05;;;;;;;25.46;64.28;100010.48;2919548;80;21476;-63
2021/08/04 09:30:28;;;;;;;5.58;1.00;;;;;;;25.49;64.13;100005.14;2948582;80;20975;-63
2021/08/04 09:34:41;;;;;;;1.75;1.07;;;;;;;25.49;63.42;100001.88;2954234;80;20963;-64
2021/08/04 09:39:05;;;;;;;1.85;0.70;;;;;;;25.83;62.81;100001.91;2918473;79;21042;-64
2021/08/04 09:43:07;;;;;;;1.07;0.72;;;;;;;25.97;61.55;99997.05;2938022;80;21006;-65
2021/08/04 09:47:13;;;;;;;0.68;0.55;;;;;;;25.72;62.11;100000.27;2916894;80;20967;-63
2021/08/04 09:51:19;;;;;;;1.65;1.12;;;;;;;25.70;62.70;99992.87;2947102;80;21002;-64
2021/08/04 09:55:23;;;;;;;1.15;0.98;;;;;;;25.74;61.63;99994.05;2925149;80;20983;-63
2021/08/04 09:59:33;;;;;;;0.65;0.42;;;;;;;25.90;62.96;99984.91;2916657;80;21038;-63
2021/08/04 10:03:35;;;;;;;2.42;1.00;;;;;;;26.12;59.53;99985.69;2932393;79;21089;-63
2021/08/04 10:08:05;;;;;;;0.90;0.50;;;;;;;26.33;58.63;99979.66;2930669;79;21599;-64
2021/08/04 10:12:13;;;;;;;1.20;0.75;;;;;;;26.19;59.46;99981.81;2934979;79;21018;-63
2021/08/04 10:16:13;;;;;;;1.20;0.70;;;;;;;25.97;58.28;99973.38;2930364;80;21007;-63
2021/08/04 10:20:15;;;;;;;1.52;0.90;;;;;;;25.73;60.68;99974.69;2932885;80;21011;-63
2021/08/04 10:24:19;;;;;;;1.95;0.50;;;;;;;25.42;60.36;99973.89;2907183;82;21555;-63
2021/08/04 10:28:21;;;;;;;1.00;0.90;;;;;;;25.16;61.30;99969.66;2927574;79;21007;-64
2021/08/04 10:32:23;;;;;;;3.05;0.75;;;;;;;25.09;61.91;99974.67;2931384;80;20963;-63
2021/08/04 10:36:41;;;;;;;2.35;1.00;;;;;;;24.95;61.80;99975.34;2935038;80;21058;-63
2021/08/04 10:40:43;;;;;;;2.83;1.00;;;;;;;24.79;61.71;99978.72;2904786;82;20944;-63
2021/08/04 10:44:46;;;;;;;0.68;0.40;;;;;;;24.73;63.06;99976.86;2923896;80;21019;-64
2021/08/04 10:48:49;;;;;;;1.12;0.88;;;;;;;24.72;62.30;99981.48;2955655;80;20991;-64
2021/08/04 10:53:03;;;;;;;2.17;0.95;;;;;;;24.93;63.80;99973.39;2940371;80;21070;-62
2021/08/04 10:57:08;;;;;;;1.40;1.30;;;;;;;25.30;62.04;99965.70;2952502;80;21535;-63
2021/08/04 11:01:28;;;;;;;3.50;0.78;;;;;;;25.68;60.39;99964.22;2921429;81;20951;-62
2021/08/04 11:06:06;;;;;;;2.10;0.90;;;;;;;25.93;61.67;99961.27;2920999;81;21003;-63
2021/08/04 11:10:15;;;;;;;1.40;0.80;;;;;;;25.78;58.91;99962.58;2919667;81;21050;-64
2021/08/04 11:14:44;;;;;;;1.60;1.20;;;;;;;25.39;58.76;99962.92;2952272;80;20974;-64
2021/08/04 11:19:10;;;;;;;4.08;0.98;;;;;;;25.18;60.22;99969.73;2920478;81;20955;-65
2021/08/04 11:23:12;;;;;;;1.07;0.80;;;;;;;24.94;60.70;99977.77;2920481;80;21038;-63
2021/08/04 11:27:25;;;;;;;1.75;1.10;;;;;;;24.75;60.91;99972.89;2929916;80;21510;-63
2021/08/04 11:31:28;;;;;;;0.72;0.60;;;;;;;24.57;62.04;99977.78;2935326;80;21085;-64
2021/08/04 11:35:30;;;;;;;1.22;0.95;;;;;;;24.43;61.50;99970.83;2960829;80;20979;-63
2021/08/04 11:39:34;;;;;;;3.83;1.17;;;;;;;24.32;64.95;99970.50;2935523;80;21066;-62
2021/08/04 11:43:36;;;;;;;3.47;1.62;;;;;;;24.24;66.42;99978.41;2922514;80;21034;-64
2021/08/04 11:47:43;;;;;;;1.55;0.80;;;;;;;24.21;67.31;99976.69;2933416;80;21093;-63
2021/08/04 11:51:52;;;;;;;1.90;0.90;;;;;;;24.08;67.44;99979.83;2912250;80;21509;-63
2021/08/04 11:56:03;;;;;;;1.87;0.95;;;;;;;23.99;67.46;99978.43;2916885;80;21027;-65
2021/08/04 12:00:12;;;;;;;1.10;0.98;;;;;;;23.91;68.22;99970.54;2908034;82;21026;-64
2021/08/04 12:04:15;;;;;;;3.70;1.72;;;;;;;23.77;70.58;99976.07;2929667;80;21110;-64
2021/08/04 12:08:28;;;;;;;3.20;1.15;;;;;;;23.66;71.74;99972.73;2938468;80;20986;-63
2021/08/04 12:12:35;;;;;;;1.57;1.12;;;;;;;23.59;72.04;99974.12;2930842;80;21027;-62
2021/08/04 12:16:50;;;;;;;1.42;1.32;;;;;;;23.63;71.66;99971.27;2922905;80;21019;-63
2021/08/04 12:20:53;;;;;;;1.17;1.05;;;;;;;23.59;70.86;99967.89;2921060;80;21009;-63
2021/08/04 12:25:02;;;;;;;2.60;1.37;;;;;;;23.52;70.97;99966.03;2923898;80;21006;-62
2021/08/04 12:29:33;;;;;;;1.82;1.25;;;;;;;23.51;71.54;99964.91;2959571;80;21105;-63
2021/08/04 12:33:45;;;;;;;5.05;1.00;;;;;;;23.63;72.54;99969.10;2933810;80;21540;-64
2021/08/04 12:37:44;;;;;;;1.60;0.70;;;;;;;23.78;73.24;99962.83;2915767;80;20987;-63
2021/08/04 12:41:47;;;;;;;1.62;0.82;;;;;;;23.94;72.83;99967.38;2936731;80;21074;-63
2021/08/04 12:45:52;;;;;;;3.75;1.12;;;;;;;24.03;70.59;99970.16;2959734;80;21014;-64
2021/08/04 12:49:58;;;;;;;3.45;1.00;;;;;;;23.97;70.37;99964.21;2960031;80;21030;-64
2021/08/04 12:54:05;;;;;;;2.45;1.12;;;;;;;23.99;72.14;99966.20;2959517;80;21030;-63
2021/08/04 12:58:11;;;;;;;2.80;0.98;;;;;;;23.96;72.18;99967.98;2954540;79;20987;-63
2021/08/04 13:02:15;;;;;;;2.77;1.00;;;;;;;24.01;70.90;99961.38;2908199;80;21010;-62
2021/08/04 13:07:12;;;;;;;3.05;1.35;;;;;;;24.05;71.24;99964.48;2908985;81;21006;-63
2021/08/04 13:11:28;;;;;;;1.87;0.90;;;;;;;24.19;70.47;99954.35;2960650;80;21022;-63
2021/08/04 13:15:47;;;;;;;2.33;1.00;;;;;;;24.32;71.37;99954.19;2929217;80;20946;-62
2021/08/04 13:20:17;;;;;;;1.67;1.22;;;;;;;24.37;71.26;99952.16;2928626;81;21033;-62
2021/08/04 13:24:38;;;;;;;5.90;1.90;;;;;;;24.34;71.28;99950.72;2928072;81;21030;-62
2021/08/04 13:28:43;;;;;;;2.35;1.27;;;;;;;24.36;70.76;99955.94;2997648;79;20951;-63
2021/08/04 13:32:45;;;;;;;1.70;0.90;;;;;;;24.39;70.92;99953.61;2912068;80;21555;-65
2021/08/04 13:36:48;;;;;;;3.52;1.00;;;;;;;24.52;70.80;99950.42;2924424;79;21010;-64
2021/08/04 13:40:52;;;;;;;1.02;0.78;;;;;;;24.72;68.71;99948.00;2944267;80;20994;-65
2021/08/04 13:44:54;;;;;;;1.25;0.50;;;;;;;25.03;66.37;99929.31;2917896;79;21015;-64
2021/08/04 13:49:01;;;;;;;0.95;0.90;;;;;;;25.31;64.47;99918.36;2935493;79;20999;-64
2021/08/04 13:53:04;;;;;;;0.98;0.88;;;;;;;25.50;63.61;99910.95;2927408;79;21008;-62
2021/08/04 13:57:09;;;;;;;0.55;0.40;;;;;;;25.70;64.65;99908.98;2917876;80;21026;-61
2021/08/04 14:01:12;;;;;;;0.60;0.50;;;;;;;25.76;63.55;99908.87;2934749;80;21002;-62
2021/08/04 14:05:16;;;;;;;1.47;1.00;;;;;;;25.88;62.70;99908.03;2908286;82;20971;-62
2021/08/04 14:09:28;;;;;;;1.27;0.50;;;;;;;25.87;63.03;99911.30;2907609;82;20995;-63
2021/08/04 14:13:29;;;;;;;0.98;0.50;;;;;;;25.83;60.82;99918.27;2913269;79;21042;-61
2021/08/04 14:17:39;;;;;;;2.27;0.57;;;;;;;26.01;61.97;99905.08;2932379;79;21023;-62
2021/08/04 14:21:42;;;;;;;1.40;0.57;;;;;;;26.27;61.68;99897.48;2959314;80;20995;-63
2021/08/04 14:25:44;;;;;;;0.90;0.60;;;;;;;26.41;58.62;99904.05;2938530;79;21003;-62
2021/08/04 14:29:46;;;;;;;1.35;0.30;;;;;;;26.58;59.35;99909.56;2918160;80;21049;-62
2021/08/04 14:33:48;;;;;;;0.90;0.70;;;;;;;26.67;57.80;99904.03;2912206;80;20940;-62
2021/08/04 14:37:51;;;;;;;1.92;0.72;;;;;;;26.73;57.88;99892.70;2928946;79;21061;-62
2021/08/04 14:41:53;;;;;;;0.53;0.42;;;;;;;26.78;58.11;99897.70;2924687;80;21125;-64
2021/08/04 14:45:55;;;;;;;0.60;0.40;;;;;;;26.98;57.91;99897.00;2925970;80;21030;-64
2021/08/04 14:49:59;;;;;;;0.20;0.20;;;;;;;26.86;55.97;99903.88;2918029;80;20979;-63
2021/08/04 14:54:01;;;;;;;0.50;0.40;;;;;;;26.68;55.35;99902.97;2929926;80;21019;-63
2021/08/04 14:58:24;;;;;;;0.80;0.80;;;;;;;26.51;56.99;99911.06;2926489;80;20986;-65
2021/08/04 15:02:25;;;;;;;0.33;0.33;;;;;;;26.35;58.10;99906.67;2924204;80;21014;-63
2021/08/04 15:06:27;;;;;;;2.25;0.62;;;;;;;26.26;58.81;99913.55;2930060;80;20947;-64
2021/08/04 15:10:29;;;;;;;4.83;0.75;;;;;;;26.29;58.92;99904.08;2931106;80;21129;-64
2021/08/04 15:14:31;;;;;;;0.53;0.42;;;;;;;26.30;59.86;99902.45;2925819;80;20987;-64
2021/08/04 15:18:51;;;;;;;0.88;0.55;;;;;;;26.33;60.34;99906.61;2925364;80;20963;-65
2021/08/04 15:22:53;;;;;;;0.90;0.80;;;;;;;26.28;60.12;99910.59;2922040;80;21003;-63
2021/08/04 15:27:20;;;;;;;1.37;0.75;;;;;;;26.20;60.17;99909.06;2907812;80;21022;-62
2021/08/04 15:31:26;;;;;;;1.22;0.93;;;;;;;26.06;60.54;99903.83;2936133;80;21027;-64
2021/08/04 15:35:29;;;;;;;3.02;0.90;;;;;;;25.83;59.72;99905.20;2936989;80;21058;-65
2021/08/04 15:39:40;;;;;;;1.40;0.82;;;;;;;25.74;60.87;99902.80;2993916;78;20928;-64
2021/08/04 15:43:42;;;;;;;2.72;0.55;;;;;;;25.84;60.55;99898.69;2987266;79;21021;-63
2021/08/04 15:47:45;;;;;;;2.15;0.93;;;;;;;26.00;60.22;99889.80;2946330;79;21013;-64
2021/08/04 15:51:49;;;;;;;1.25;0.60;;;;;;;26.02;59.57;99889.02;2940562;81;21029;-63
2021/08/04 15:55:53;;;;;;;1.20;0.60;;;;;;;26.12;60.45;99885.69;2964266;79;21503;-62
2021/08/04 16:00:05;;;;;;;2.05;0.85;;;;;;;26.18;59.08;99887.48;2993381;79;20980;-62
2021/08/04 16:04:08;;;;;;;1.47;0.72;;;;;;;26.26;58.65;99882.20;2993343;79;21033;-63
2021/08/04 16:08:44;;;;;;;1.15;0.70;;;;;;;26.16;60.12;99891.51;2983148;79;20950;-65
2021/08/04 16:12:46;;;;;;;;;;;;;;;25.99;60.20;99887.30;2948537;79;21064;-61
2021/08/04 16:17:25;;;;;;;1.40;0.90;;;;;;;25.83;62.24;99888.30;2958339;79;20105;-65
2021/08/04 16:21:27;;;;;;;1.57;0.80;;;;;;;25.88;61.71;99887.59;2976002;79;20938;-62
2021/08/04 16:25:29;;;;;;;2.85;1.27;;;;;;;25.87;60.65;99887.30;2943005;79;21026;-66
2021/08/04 16:30:06;;;;;;;0.72;0.72;;;;;;;25.79;60.82;99885.25;2941051;81;20915;-62
2021/08/04 16:34:09;;;;;;;1.02;0.60;;;;;;;25.76;59.31;99881.64;2973021;79;29721;-65
2021/08/04 16:38:46;;;;;;;1.42;0.47;;;;;;;25.65;59.78;99880.58;2986458;79;21053;-63
2021/08/04 16:42:51;;;;;;;9.98;1.25;;;;;;;25.53;59.17;99880.53;3030113;78;20987;-62
2021/08/04 16:47:32;;;;;;;1.80;1.02;;;;;;;25.41;60.33;99874.23;2983391;79;20991;-61
2021/08/04 16:51:33;;;;;;;1.47;1.32;;;;;;;25.27;60.28;99872.78;3037472;78;21014;-62
2021/08/04 16:55:38;;;;;;;1.35;1.25;;;;;;;25.09;60.94;99874.51;2918971;80;21007;-62
2021/08/04 17:00:26;;;;;;;2.40;1.65;;;;;;;24.95;62.22;99869.25;2969828;80;20994;-62
2021/08/04 17:04:21;;;;;;;4.60;2.90;;;;;;;24.91;63.03;99869.42;2886382;82;20959;-62
2021/08/04 17:08:23;;;;;;;4.45;3.47;;;;;;;24.84;63.13;99875.50;2887472;81;20998;-63
2021/08/04 17:12:25;;;;;;;7.60;3.02;;;;;;;24.74;63.77;99875.17;2887188;82;20986;-61
2021/08/04 17:16:32;;;;;;;6.05;2.05;;;;;;;24.71;63.80;99880.56;2887389;82;21018;-61
2021/08/04 17:20:34;;;;;;;7.78;2.92;;;;;;;24.58;64.09;99880.21;2887017;82;20991;-62
2021/08/04 17:24:37;;;;;;;7.08;2.72;;;;;;;24.51;64.63;99883.01;2857867;82;21062;-64
2021/08/04 17:28:39;;;;;;;7.62;2.02;;;;;;;24.42;65.41;99888.98;2958792;80;21078;-61
2021/08/04 17:32:40;;;;;;;5.53;2.55;;;;;;;24.32;66.22;99883.53;2961640;77;21063;-62
2021/08/04 17:36:42;;;;;;;2.85;2.17;;;;;;;24.24;66.77;99884.66;3024518;77;20979;-61
2021/08/04 17:40:44;;;;;;;4.97;2.87;;;;;;;24.14;67.49;99880.30;3017170;78;20979;-62
2021/08/04 17:44:46;;;;;;;6.20;3.52;;;;;;;24.12;68.03;99876.14;3017316;79;20951;-62
2021/08/04 17:48:48;;;;;;;9.63;5.78;;;;;;;24.08;67.80;99872.52;3022763;76;21003;-62
2021/08/04 17:52:49;;;;;;;32.95;22.58;;;;;;;24.01;68.48;99881.25;3049123;77;20963;-63
2021/08/04 17:56:52;;;;;;;19.90;14.13;;;;;;;23.82;68.97;99888.01;2945814;80;20964;-61
2021/08/04 18:00:54;;;;;;;17.55;11.03;;;;;;;23.65;69.65;99893.16;2945844;81;21000;-60
2021/08/04 18:04:57;;;;;;;45.35;30.55;;;;;;;23.56;69.62;99892.30;2959173;80;21027;-62
2021/08/04 18:08:59;;;;;;;20.85;15.40;;;;;;;23.47;70.73;99889.02;2939587;80;21058;-61
2021/08/04 18:13:01;;;;;;;16.93;10.82;;;;;;;23.38;71.22;99891.17;2912724;81;20991;-63
2021/08/04 18:17:14;;;;;;;15.83;8.60;;;;;;;23.26;71.42;99895.13;2881646;81;20975;-64
2021/08/04 18:21:17;;;;;;;11.33;6.58;;;;;;;23.22;71.54;99894.72;2930119;79;20979;-64
2021/08/04 18:25:19;;;;;;;4.00;2.15;;;;;;;23.08;71.03;99902.09;2941542;80;21007;-62
2021/08/04 18:29:20;;;;;;;5.58;2.40;;;;;;;22.91;71.08;99901.78;2935914;79;21606;-62
2021/08/04 18:33:23;;;;;;;4.95;3.20;;;;;;;22.78;71.19;99890.48;2942421;80;21010;-61
2021/08/04 18:37:25;;;;;;;9.58;3.47;;;;;;;22.66;71.38;99901.19;2939376;79;21010;-62
2021/08/04 18:41:26;;;;;;;6.30;3.50;;;;;;;22.58;71.95;99913.60;2929889;79;21038;-63
2021/08/04 18:45:28;;;;;;;4.92;4.20;;;;;;;22.38;72.06;99915.02;2932404;80;20998;-62
2021/08/04 18:49:30;;;;;;;7.28;5.28;;;;;;;21.97;73.08;99918.31;2918727;79;20998;-61
2021/08/04 18:53:36;;;;;;;4.95;3.58;;;;;;;21.84;74.19;99921.87;2941841;80;21047;-64
2021/08/04 18:57:39;;;;;;;4.87;3.35;;;;;;;21.68;74.73;99919.08;2942297;79;21027;-65
2021/08/04 19:01:41;;;;;;;2.67;2.27;;;;;;;21.58;74.99;99922.16;2934896;80;20960;-63
2021/08/04 19:05:45;;;;;;;2.20;2.00;;;;;;;21.53;75.21;99924.66;2927315;79;21022;-62
2021/08/04 19:09:47;;;;;;;4.90;2.57;;;;;;;21.41;75.58;99923.06;2940787;79;21042;-62
2021/08/04 19:13:53;;;;;;;2.85;2.17;;;;;;;21.39;75.85;99918.38;2944324;79;21045;-64
2021/08/04 19:17:55;;;;;;;;;;;;;;;21.36;75.74;99918.80;2946141;79;20990;-63
2021/08/04 19:22:00;;;;;;;4.03;3.27;;;;;;;21.32;76.54;99918.41;2911451;80;20111;-62
2021/08/04 19:26:02;;;;;;;3.30;2.45;;;;;;;21.17;77.33;99919.91;2958296;80;20968;-63
2021/08/04 19:30:16;;;;;;;4.10;3.52;;;;;;;21.07;77.79;99913.55;2957733;80;21088;-62